<?xml version='1.0' encoding='UTF-8'?><gpx version="1.1" creator="JPX - https://github.com/jenetics/jpx" xmlns="http://www.topografix.com/GPX/1/1"><trk><trkseg><trkpt lat="45.4633746" lon="9.4761855"><ele>100.0</ele><time>2026-04-04T06:53:34.365Z</time></trkpt><trkpt lat="45.4634045" lon="9.4759548"><ele>100.0</ele><time>2026-04-04T06:54:28.683Z</time></trkpt><trkpt lat="45.4635541" lon="9.4759583"><ele>100.0</ele><time>2026-04-04T06:55:01.871Z</time></trkpt><trkpt lat="45.4639525" lon="9.4763471"><ele>101.0</ele><time>2026-04-04T06:55:07.505Z</time></trkpt><trkpt lat="45.4641961" lon="9.4762981"><ele>102.0</ele><time>2026-04-04T06:55:16.007Z</time></trkpt><trkpt lat="45.4642387" lon="9.4762215"><ele>103.0</ele><time>2026-04-04T06:55:21.752Z</time></trkpt><trkpt lat="45.4650696" lon="9.4757707"><ele>103.0</ele><time>2026-04-04T06:55:32.968Z</time></trkpt><trkpt lat="45.4663329" lon="9.4748322"><ele>103.0</ele><time>2026-04-04T06:55:39.53Z</time></trkpt><trkpt lat="45.4661997" lon="9.4750757"><ele>103.0</ele><time>2026-04-04T06:55:46.545Z</time></trkpt><trkpt lat="45.4664373" lon="9.475264"><ele>101.0</ele><time>2026-04-04T06:55:53.561Z</time></trkpt><trkpt lat="45.4672706" lon="9.4753238"><ele>101.0</ele><time>2026-04-04T06:56:02.857Z</time></trkpt><trkpt lat="45.4680872" lon="9.4750296"><ele>101.0</ele><time>2026-04-04T06:56:09.838Z</time></trkpt><trkpt lat="45.4680049" lon="9.4744441"><ele>101.0</ele><time>2026-04-04T06:56:17.911Z</time></trkpt><trkpt lat="45.4752805" lon="9.4736931"><ele>109.0</ele><time>2026-04-04T06:57:16.834Z</time></trkpt><trkpt lat="45.4828085" lon="9.4722715"><ele>100.0</ele><time>2026-04-04T06:57:23.857Z</time></trkpt><trkpt lat="45.4733651" lon="9.5084093"><ele>100.0</ele><time>2026-04-04T07:07:47.663Z</time></trkpt><trkpt lat="45.4748962" lon="9.5097063"><ele>101.0</ele><time>2026-04-04T07:07:55.878Z</time></trkpt><trkpt lat="45.4750972" lon="9.5113817"><ele>102.0</ele><time>2026-04-04T07:08:02.886Z</time></trkpt><trkpt lat="45.4751692" lon="9.5136532"><ele>102.0</ele><time>2026-04-04T07:08:09.954Z</time></trkpt><trkpt lat="45.4752257" lon="9.5137068"><ele>102.0</ele><time>2026-04-04T07:08:15.825Z</time></trkpt><trkpt lat="45.4750452" lon="9.5141964"><ele>101.0</ele><time>2026-04-04T07:08:22.721Z</time></trkpt><trkpt lat="45.4749782" lon="9.5195783"><ele>101.0</ele><time>2026-04-04T07:08:36.59Z</time></trkpt><trkpt lat="45.4748833" lon="9.5197124"><ele>101.0</ele><time>2026-04-04T07:08:44.727Z</time></trkpt><trkpt lat="45.4765924" lon="9.5233958"><ele>103.0</ele><time>2026-04-04T07:09:07.928Z</time></trkpt><trkpt lat="45.4750913" lon="9.5333933"><ele>102.0</ele><time>2026-04-04T07:09:28.83Z</time></trkpt><trkpt lat="45.4742959" lon="9.5498168"><ele>102.0</ele><time>2026-04-04T07:10:35.114Z</time></trkpt><trkpt lat="45.4735616" lon="9.5567167"><ele>103.0</ele><time>2026-04-04T07:10:43.904Z</time></trkpt><trkpt lat="45.4771991" lon="9.5555059"><ele>105.0</ele><time>2026-04-04T07:11:31.522Z</time></trkpt><trkpt lat="45.477441" lon="9.5571221"><ele>101.0</ele><time>2026-04-04T07:11:47.499Z</time></trkpt><trkpt lat="45.4766598" lon="9.5579005"><ele>102.0</ele><time>2026-04-04T07:11:55.926Z</time></trkpt><trkpt lat="45.4766107" lon="9.5609835"><ele>104.0</ele><time>2026-04-04T07:12:02.945Z</time></trkpt><trkpt lat="45.4774523" lon="9.5614454"><ele>103.0</ele><time>2026-04-04T07:12:09.105Z</time></trkpt><trkpt lat="45.4773771" lon="9.5631731"><ele>104.0</ele><time>2026-04-04T07:12:15.558Z</time></trkpt><trkpt lat="45.4776732" lon="9.5655182"><ele>104.0</ele><time>2026-04-04T07:12:23.912Z</time></trkpt><trkpt lat="45.4774946" lon="9.5668794"><ele>104.0</ele><time>2026-04-04T07:12:31.074Z</time></trkpt><trkpt lat="45.4777581" lon="9.568452"><ele>108.0</ele><time>2026-04-04T07:12:38.924Z</time></trkpt><trkpt lat="45.4771403" lon="9.5739993"><ele>109.0</ele><time>2026-04-04T07:12:54.853Z</time></trkpt><trkpt lat="45.4819672" lon="9.5893746"><ele>110.0</ele><time>2026-04-04T07:13:24.82Z</time></trkpt><trkpt lat="45.4782188" lon="9.5921037"><ele>110.0</ele><time>2026-04-04T07:13:53.021Z</time></trkpt><trkpt lat="45.477715" lon="9.5925785"><ele>108.0</ele><time>2026-04-04T07:13:59.941Z</time></trkpt><trkpt lat="45.4777246" lon="9.5944057"><ele>106.0</ele><time>2026-04-04T07:14:07.876Z</time></trkpt><trkpt lat="45.4744664" lon="9.5954125"><ele>109.0</ele><time>2026-04-04T07:14:14.878Z</time></trkpt><trkpt lat="45.4778387" lon="9.5967295"><ele>110.0</ele><time>2026-04-04T07:14:23.864Z</time></trkpt><trkpt lat="45.4766872" lon="9.5985068"><ele>108.0</ele><time>2026-04-04T07:14:30.845Z</time></trkpt><trkpt lat="45.4761846" lon="9.6006383"><ele>108.0</ele><time>2026-04-04T07:14:38.632Z</time></trkpt><trkpt lat="45.4766234" lon="9.6015908"><ele>108.0</ele><time>2026-04-04T07:14:46.795Z</time></trkpt><trkpt lat="45.4789474" lon="9.6025972"><ele>105.0</ele><time>2026-04-04T07:15:02.826Z</time></trkpt><trkpt lat="45.4765447" lon="9.6140531"><ele>106.0</ele><time>2026-04-04T07:15:39.825Z</time></trkpt><trkpt lat="45.4762745" lon="9.6159819"><ele>106.0</ele><time>2026-04-04T07:15:46.839Z</time></trkpt><trkpt lat="45.4762733" lon="9.6161587"><ele>106.0</ele><time>2026-04-04T07:15:53.8Z</time></trkpt><trkpt lat="45.4766284" lon="9.6183995"><ele>104.0</ele><time>2026-04-04T07:16:01.837Z</time></trkpt><trkpt lat="45.476749" lon="9.6193543"><ele>103.0</ele><time>2026-04-04T07:16:15.979Z</time></trkpt><trkpt lat="45.475572" lon="9.6224518"><ele>106.0</ele><time>2026-04-04T07:16:30.9Z</time></trkpt><trkpt lat="45.4755824" lon="9.6245207"><ele>105.0</ele><time>2026-04-04T07:16:39.901Z</time></trkpt><trkpt lat="45.474932" lon="9.6294839"><ele>106.0</ele><time>2026-04-04T07:16:46.768Z</time></trkpt><trkpt lat="45.4789672" lon="9.6286032"><ele>105.0</ele><time>2026-04-04T07:17:07.827Z</time></trkpt><trkpt lat="45.4798821" lon="9.6329342"><ele>101.0</ele><time>2026-04-04T07:17:15.924Z</time></trkpt><trkpt lat="45.4767559" lon="9.6444509"><ele>102.0</ele><time>2026-04-04T07:17:56.512Z</time></trkpt><trkpt lat="45.4785484" lon="9.6550583"><ele>102.0</ele><time>2026-04-04T07:18:43.859Z</time></trkpt><trkpt lat="45.4803264" lon="9.6609126"><ele>103.0</ele><time>2026-04-04T07:18:59.868Z</time></trkpt><trkpt lat="45.4802098" lon="9.6618655"><ele>104.0</ele><time>2026-04-04T07:19:05.935Z</time></trkpt><trkpt lat="45.4806338" lon="9.6643625"><ele>102.0</ele><time>2026-04-04T07:19:20.9Z</time></trkpt><trkpt lat="45.4806032" lon="9.6650491"><ele>104.0</ele><time>2026-04-04T07:19:27.877Z</time></trkpt><trkpt lat="45.4818059" lon="9.671679"><ele>100.0</ele><time>2026-04-04T07:19:48.839Z</time></trkpt><trkpt lat="45.479586" lon="9.6821139"><ele>102.0</ele><time>2026-04-04T07:20:10.944Z</time></trkpt><trkpt lat="45.4811609" lon="9.6810658"><ele>102.0</ele><time>2026-04-04T07:20:25.764Z</time></trkpt><trkpt lat="45.4812672" lon="9.681121"><ele>102.0</ele><time>2026-04-04T07:20:34.031Z</time></trkpt><trkpt lat="45.4815374" lon="9.6835917"><ele>101.0</ele><time>2026-04-04T07:20:40.922Z</time></trkpt><trkpt lat="45.4801357" lon="9.6845237"><ele>102.0</ele><time>2026-04-04T07:20:47.48Z</time></trkpt><trkpt lat="45.4809268" lon="9.684984"><ele>101.0</ele><time>2026-04-04T07:21:08.025Z</time></trkpt><trkpt lat="45.4801015" lon="9.6869165"><ele>101.0</ele><time>2026-04-04T07:21:14.609Z</time></trkpt><trkpt lat="45.4796496" lon="9.6881118"><ele>101.0</ele><time>2026-04-04T07:21:21.899Z</time></trkpt><trkpt lat="45.4805013" lon="9.6898327"><ele>100.0</ele><time>2026-04-04T07:21:28.949Z</time></trkpt><trkpt lat="45.4799067" lon="9.690722"><ele>101.0</ele><time>2026-04-04T07:21:36.97Z</time></trkpt><trkpt lat="45.4797238" lon="9.6919236"><ele>100.0</ele><time>2026-04-04T07:21:44.053Z</time></trkpt><trkpt lat="45.4797465" lon="9.6927764"><ele>101.0</ele><time>2026-04-04T07:21:50.941Z</time></trkpt><trkpt lat="45.479051" lon="9.6937629"><ele>100.0</ele><time>2026-04-04T07:21:58.056Z</time></trkpt><trkpt lat="45.4795929" lon="9.6946521"><ele>100.0</ele><time>2026-04-04T07:22:06.027Z</time></trkpt><trkpt lat="45.4807941" lon="9.6956628"><ele>98.0</ele><time>2026-04-04T07:22:12.804Z</time></trkpt><trkpt lat="45.4804528" lon="9.6971718"><ele>101.0</ele><time>2026-04-04T07:22:19.929Z</time></trkpt><trkpt lat="45.4814251" lon="9.6984454"><ele>100.0</ele><time>2026-04-04T07:22:30.945Z</time></trkpt><trkpt lat="45.48219" lon="9.7012971"><ele>100.0</ele><time>2026-04-04T07:22:37.854Z</time></trkpt><trkpt lat="45.4826555" lon="9.7034384"><ele>104.0</ele><time>2026-04-04T07:22:44.883Z</time></trkpt><trkpt lat="45.4830322" lon="9.7072021"><ele>102.0</ele><time>2026-04-04T07:23:07.806Z</time></trkpt><trkpt lat="45.4816757" lon="9.7104537"><ele>100.0</ele><time>2026-04-04T07:23:22.866Z</time></trkpt><trkpt lat="45.4784347" lon="9.7278709"><ele>103.0</ele><time>2026-04-04T07:25:19.998Z</time></trkpt><trkpt lat="45.4797281" lon="9.7328508"><ele>103.0</ele><time>2026-04-04T07:25:41.862Z</time></trkpt><trkpt lat="45.4798585" lon="9.7340104"><ele>102.0</ele><time>2026-04-04T07:25:48.775Z</time></trkpt><trkpt lat="45.4800066" lon="9.7360405"><ele>102.0</ele><time>2026-04-04T07:25:56.79Z</time></trkpt><trkpt lat="45.4810173" lon="9.7428102"><ele>105.0</ele><time>2026-04-04T07:26:17.831Z</time></trkpt><trkpt lat="45.4799552" lon="9.7517768"><ele>102.0</ele><time>2026-04-04T07:27:07.489Z</time></trkpt><trkpt lat="45.4774597" lon="9.7687241"><ele>104.0</ele><time>2026-04-04T07:28:31.153Z</time></trkpt><trkpt lat="45.479608" lon="9.7745502"><ele>107.0</ele><time>2026-04-04T07:28:56.93Z</time></trkpt><trkpt lat="45.4839838" lon="9.7811119"><ele>106.0</ele><time>2026-04-04T07:29:34.758Z</time></trkpt><trkpt lat="45.4799665" lon="9.7820803"><ele>106.0</ele><time>2026-04-04T07:29:40.48Z</time></trkpt><trkpt lat="45.48001" lon="9.7835156"><ele>104.0</ele><time>2026-04-04T07:29:48.891Z</time></trkpt><trkpt lat="45.4806037" lon="9.7840828"><ele>109.0</ele><time>2026-04-04T07:29:55.825Z</time></trkpt><trkpt lat="45.4805621" lon="9.7854651"><ele>107.0</ele><time>2026-04-04T07:30:02.836Z</time></trkpt><trkpt lat="45.4809352" lon="9.786406"><ele>106.5</ele><time>2026-04-04T07:30:08.789Z</time></trkpt><trkpt lat="45.4812864" lon="9.7866182"><ele>106.0</ele><time>2026-04-04T07:30:16.892Z</time></trkpt><trkpt lat="45.4815505" lon="9.7887354"><ele>106.0</ele><time>2026-04-04T07:30:23.045Z</time></trkpt><trkpt lat="45.4812917" lon="9.7918346"><ele>109.0</ele><time>2026-04-04T07:30:29.486Z</time></trkpt><trkpt lat="45.4831979" lon="9.7917023"><ele>111.0</ele><time>2026-04-04T07:30:52.535Z</time></trkpt><trkpt lat="45.4840389" lon="9.791981"><ele>111.0</ele><time>2026-04-04T07:31:01.071Z</time></trkpt><trkpt lat="45.4850901" lon="9.7926081"><ele>110.0</ele><time>2026-04-04T07:31:06.449Z</time></trkpt><trkpt lat="45.4860202" lon="9.7932085"><ele>106.0</ele><time>2026-04-04T07:31:13.468Z</time></trkpt><trkpt lat="45.4869532" lon="9.7936167"><ele>109.0</ele><time>2026-04-04T07:31:21.008Z</time></trkpt><trkpt lat="45.4871358" lon="9.7947242"><ele>110.0</ele><time>2026-04-04T07:31:28.893Z</time></trkpt><trkpt lat="45.4888492" lon="9.7958266"><ele>110.0</ele><time>2026-04-04T07:31:34.658Z</time></trkpt><trkpt lat="45.4887979" lon="9.7967561"><ele>112.0</ele><time>2026-04-04T07:31:41.758Z</time></trkpt><trkpt lat="45.4888305" lon="9.7984833"><ele>112.0</ele><time>2026-04-04T07:31:48.913Z</time></trkpt><trkpt lat="45.4900651" lon="9.7999883"><ele>112.0</ele><time>2026-04-04T07:32:02.511Z</time></trkpt><trkpt lat="45.4896584" lon="9.8009396"><ele>112.0</ele><time>2026-04-04T07:32:10.801Z</time></trkpt><trkpt lat="45.4919396" lon="9.8050165"><ele>110.0</ele><time>2026-04-04T07:32:25.808Z</time></trkpt><trkpt lat="45.4926346" lon="9.8062589"><ele>118.0</ele><time>2026-04-04T07:32:33.884Z</time></trkpt><trkpt lat="45.4989305" lon="9.831706"><ele>118.0</ele><time>2026-04-04T07:34:07.832Z</time></trkpt><trkpt lat="45.4976347" lon="9.8331129"><ele>116.0</ele><time>2026-04-04T07:34:49.788Z</time></trkpt><trkpt lat="45.5009162" lon="9.8590944"><ele>112.0</ele><time>2026-04-04T07:36:27.87Z</time></trkpt><trkpt lat="45.5013415" lon="9.8587947"><ele>114.0</ele><time>2026-04-04T07:36:35.827Z</time></trkpt><trkpt lat="45.5098168" lon="9.8573762"><ele>110.0</ele><time>2026-04-04T07:37:14.947Z</time></trkpt><trkpt lat="45.5089036" lon="9.8578157"><ele>114.0</ele><time>2026-04-04T07:37:21.978Z</time></trkpt><trkpt lat="45.5078099" lon="9.8571369"><ele>111.0</ele><time>2026-04-04T07:37:29.928Z</time></trkpt><trkpt lat="45.5104374" lon="9.8577982"><ele>114.0</ele><time>2026-04-04T07:37:50.875Z</time></trkpt><trkpt lat="45.5131771" lon="9.8594737"><ele>114.0</ele><time>2026-04-04T07:38:04.947Z</time></trkpt><trkpt lat="45.5131464" lon="9.859666"><ele>114.0</ele><time>2026-04-04T07:38:18.895Z</time></trkpt><trkpt lat="45.5128624" lon="9.8595866"><ele>114.0</ele><time>2026-04-04T07:38:26.871Z</time></trkpt><trkpt lat="45.5158718" lon="9.8647809"><ele>127.0</ele><time>2026-04-04T07:38:55.945Z</time></trkpt><trkpt lat="45.516165" lon="9.8654544"><ele>128.0</ele><time>2026-04-04T07:39:02.981Z</time></trkpt><trkpt lat="45.5165866" lon="9.866483"><ele>133.0</ele><time>2026-04-04T07:39:08.647Z</time></trkpt><trkpt lat="45.5168768" lon="9.8682579"><ele>132.5</ele><time>2026-04-04T07:39:16.733Z</time></trkpt><trkpt lat="45.5169062" lon="9.8687556"><ele>132.0</ele><time>2026-04-04T07:39:23.025Z</time></trkpt><trkpt lat="45.5174528" lon="9.8695698"><ele>131.5</ele><time>2026-04-04T07:39:31.181Z</time></trkpt><trkpt lat="45.5173928" lon="9.8696046"><ele>131.0</ele><time>2026-04-04T07:39:38.979Z</time></trkpt><trkpt lat="45.5175805" lon="9.871848"><ele>131.0</ele><time>2026-04-04T07:39:44.505Z</time></trkpt><trkpt lat="45.5173949" lon="9.872451"><ele>131.0</ele><time>2026-04-04T07:39:52.816Z</time></trkpt><trkpt lat="45.517861" lon="9.8744739"><ele>131.0</ele><time>2026-04-04T07:39:59.882Z</time></trkpt><trkpt lat="45.5181313" lon="9.8750685"><ele>132.0</ele><time>2026-04-04T07:40:06.917Z</time></trkpt><trkpt lat="45.5199523" lon="9.8850238"><ele>133.0</ele><time>2026-04-04T07:41:10.87Z</time></trkpt><trkpt lat="45.5202583" lon="9.8905956"><ele>137.0</ele><time>2026-04-04T07:41:31.858Z</time></trkpt><trkpt lat="45.5231831" lon="9.9019794"><ele>136.0</ele><time>2026-04-04T07:42:00.875Z</time></trkpt><trkpt lat="45.5230278" lon="9.9031935"><ele>138.0</ele><time>2026-04-04T07:42:49.987Z</time></trkpt><trkpt lat="45.5246665" lon="9.9047288"><ele>137.0</ele><time>2026-04-04T07:42:56.882Z</time></trkpt><trkpt lat="45.5250897" lon="9.9067864"><ele>140.0</ele><time>2026-04-04T07:43:11.864Z</time></trkpt><trkpt lat="45.5277885" lon="9.9089949"><ele>141.0</ele><time>2026-04-04T07:43:25.894Z</time></trkpt><trkpt lat="45.5286914" lon="9.9041763"><ele>139.0</ele><time>2026-04-04T07:43:32.824Z</time></trkpt><trkpt lat="45.529868" lon="9.9093331"><ele>138.0</ele><time>2026-04-04T07:43:39.631Z</time></trkpt><trkpt lat="45.5265944" lon="9.9083021"><ele>139.0</ele><time>2026-04-04T07:43:54.853Z</time></trkpt><trkpt lat="45.5308023" lon="9.9087929"><ele>140.0</ele><time>2026-04-04T07:44:08.789Z</time></trkpt><trkpt lat="45.5336467" lon="9.9092397"><ele>148.0</ele><time>2026-04-04T07:44:36.853Z</time></trkpt><trkpt lat="45.5404749" lon="9.9104238"><ele>148.0</ele><time>2026-04-04T07:45:24.882Z</time></trkpt><trkpt lat="45.5406834" lon="9.9101071"><ele>148.0</ele><time>2026-04-04T07:45:30.471Z</time></trkpt><trkpt lat="45.5438984" lon="9.9096498"><ele>156.0</ele><time>2026-04-04T07:46:00.784Z</time></trkpt><trkpt lat="45.5499412" lon="9.9127696"><ele>157.0</ele><time>2026-04-04T07:46:45.802Z</time></trkpt><trkpt lat="45.5534788" lon="9.9116565"><ele>166.0</ele><time>2026-04-04T07:47:16.826Z</time></trkpt><trkpt lat="45.5614366" lon="9.9257308"><ele>164.0</ele><time>2026-04-04T07:47:31.812Z</time></trkpt><trkpt lat="45.562093" lon="9.925908"><ele>163.0</ele><time>2026-04-04T07:47:38.616Z</time></trkpt><trkpt lat="45.5637953" lon="9.9155177"><ele>167.0</ele><time>2026-04-04T07:48:00.569Z</time></trkpt><trkpt lat="45.5657661" lon="9.9116438"><ele>166.0</ele><time>2026-04-04T07:48:07.821Z</time></trkpt><trkpt lat="45.5688034" lon="9.9193481"><ele>176.0</ele><time>2026-04-04T07:48:34.484Z</time></trkpt><trkpt lat="45.5794624" lon="9.92019"><ele>180.0</ele><time>2026-04-04T07:49:18.844Z</time></trkpt><trkpt lat="45.5883679" lon="9.9105772"><ele>184.0</ele><time>2026-04-04T07:49:48.885Z</time></trkpt><trkpt lat="45.5946585" lon="9.9127024"><ele>183.0</ele><time>2026-04-04T07:51:18.979Z</time></trkpt><trkpt lat="45.5957987" lon="9.9111638"><ele>192.0</ele><time>2026-04-04T07:51:32.87Z</time></trkpt><trkpt lat="45.6081322" lon="9.9098887"><ele>193.0</ele><time>2026-04-04T07:52:22.848Z</time></trkpt><trkpt lat="45.6088087" lon="9.909424"><ele>190.0</ele><time>2026-04-04T07:52:29.828Z</time></trkpt><trkpt lat="45.6102182" lon="9.9092005"><ele>199.0</ele><time>2026-04-04T07:52:36.913Z</time></trkpt><trkpt lat="45.6188033" lon="9.9153563"><ele>203.0</ele><time>2026-04-04T07:53:18.849Z</time></trkpt><trkpt lat="45.6236729" lon="9.9171924"><ele>204.0</ele><time>2026-04-04T07:53:34.074Z</time></trkpt><trkpt lat="45.6259538" lon="9.918144"><ele>205.0</ele><time>2026-04-04T07:53:55.922Z</time></trkpt><trkpt lat="45.6270208" lon="9.9255818"><ele>205.0</ele><time>2026-04-04T07:54:34.548Z</time></trkpt><trkpt lat="45.6273557" lon="9.9264123"><ele>205.0</ele><time>2026-04-04T07:54:42.656Z</time></trkpt><trkpt lat="45.6271312" lon="9.9282375"><ele>204.5</ele><time>2026-04-04T07:54:49.716Z</time></trkpt><trkpt lat="45.6269653" lon="9.9283054"><ele>204.0</ele><time>2026-04-04T07:54:57.941Z</time></trkpt><trkpt lat="45.6268098" lon="9.9293805"><ele>204.0</ele><time>2026-04-04T07:55:04.891Z</time></trkpt><trkpt lat="45.6268542" lon="9.9297145"><ele>204.0</ele><time>2026-04-04T07:55:10.689Z</time></trkpt><trkpt lat="45.6282157" lon="9.9301336"><ele>207.0</ele><time>2026-04-04T07:55:21.033Z</time></trkpt><trkpt lat="45.6305461" lon="9.9306972"><ele>208.0</ele><time>2026-04-04T07:55:48.9Z</time></trkpt><trkpt lat="45.6310604" lon="9.9320436"><ele>211.0</ele><time>2026-04-04T07:56:11.035Z</time></trkpt><trkpt lat="45.6326104" lon="9.9316353"><ele>210.66666666666666</ele><time>2026-04-04T07:56:37.627Z</time></trkpt><trkpt lat="45.6328136" lon="9.9318605"><ele>210.33333333333331</ele><time>2026-04-04T07:56:51.566Z</time></trkpt><trkpt lat="45.6329199" lon="9.9319069"><ele>210.0</ele><time>2026-04-04T07:56:58.619Z</time></trkpt><trkpt lat="45.6336732" lon="9.9320704"><ele>210.0</ele><time>2026-04-04T07:57:13.727Z</time></trkpt><trkpt lat="45.6339447" lon="9.9321543"><ele>210.0</ele><time>2026-04-04T07:57:20.962Z</time></trkpt><trkpt lat="45.6340902" lon="9.9322741"><ele>210.0</ele><time>2026-04-04T07:57:27.694Z</time></trkpt><trkpt lat="45.6342461" lon="9.9322928"><ele>213.0</ele><time>2026-04-04T07:57:41.723Z</time></trkpt><trkpt lat="45.6347119" lon="9.9325561"><ele>213.0</ele><time>2026-04-04T07:57:48.723Z</time></trkpt><trkpt lat="45.634971" lon="9.9327225"><ele>213.0</ele><time>2026-04-04T07:58:02.76Z</time></trkpt><trkpt lat="45.6350212" lon="9.9328125"><ele>213.0</ele><time>2026-04-04T07:58:09.669Z</time></trkpt><trkpt lat="45.6354744" lon="9.9335586"><ele>213.66666666666669</ele><time>2026-04-04T07:58:17.035Z</time></trkpt><trkpt lat="45.6356464" lon="9.9332209"><ele>214.33333333333334</ele><time>2026-04-04T07:58:28.599Z</time></trkpt><trkpt lat="45.6356522" lon="9.9330116"><ele>215.0</ele><time>2026-04-04T07:58:50.726Z</time></trkpt><trkpt lat="45.6356989" lon="9.9326315"><ele>215.0</ele><time>2026-04-04T07:58:58.541Z</time></trkpt><trkpt lat="45.6361329" lon="9.933045"><ele>214.5</ele><time>2026-04-04T07:59:05.044Z</time></trkpt><trkpt lat="45.6364755" lon="9.9331368"><ele>214.0</ele><time>2026-04-04T07:59:11.495Z</time></trkpt><trkpt lat="45.636609" lon="9.933152"><ele>217.0</ele><time>2026-04-04T07:59:19.347Z</time></trkpt><trkpt lat="45.6370293" lon="9.9334972"><ele>217.0</ele><time>2026-04-04T07:59:27.097Z</time></trkpt><trkpt lat="45.6376884" lon="9.9334767"><ele>217.0</ele><time>2026-04-04T07:59:40.055Z</time></trkpt><trkpt lat="45.6381602" lon="9.9337034"><ele>216.0</ele><time>2026-04-04T07:59:54.042Z</time></trkpt><trkpt lat="45.6388446" lon="9.9338744"><ele>216.0</ele><time>2026-04-04T08:00:14.484Z</time></trkpt><trkpt lat="45.6394642" lon="9.9339859"><ele>217.0</ele><time>2026-04-04T08:00:22.896Z</time></trkpt><trkpt lat="45.6400828" lon="9.9341909"><ele>219.0</ele><time>2026-04-04T08:00:31.043Z</time></trkpt><trkpt lat="45.6410039" lon="9.9345555"><ele>218.5</ele><time>2026-04-04T08:00:38.052Z</time></trkpt><trkpt lat="45.6413853" lon="9.9345653"><ele>218.0</ele><time>2026-04-04T08:00:46.732Z</time></trkpt><trkpt lat="45.6419999" lon="9.935174"><ele>219.0</ele><time>2026-04-04T08:00:54.232Z</time></trkpt><trkpt lat="45.642897" lon="9.9351563"><ele>219.0</ele><time>2026-04-04T08:01:08.534Z</time></trkpt><trkpt lat="45.643285" lon="9.9353072"><ele>219.0</ele><time>2026-04-04T08:01:14.635Z</time></trkpt><trkpt lat="45.6438459" lon="9.9356305"><ele>222.0</ele><time>2026-04-04T08:01:22.369Z</time></trkpt><trkpt lat="45.6445157" lon="9.9366713"><ele>221.0</ele><time>2026-04-04T08:01:29.76Z</time></trkpt><trkpt lat="45.6455946" lon="9.9371271"><ele>223.0</ele><time>2026-04-04T08:01:44.883Z</time></trkpt><trkpt lat="45.6463818" lon="9.9377596"><ele>229.0</ele><time>2026-04-04T08:01:52.536Z</time></trkpt><trkpt lat="45.6483167" lon="9.9392406"><ele>229.0</ele><time>2026-04-04T08:02:03.521Z</time></trkpt><trkpt lat="45.6489688" lon="9.9398588"><ele>229.0</ele><time>2026-04-04T08:02:10.505Z</time></trkpt><trkpt lat="45.6493443" lon="9.9400743"><ele>229.0</ele><time>2026-04-04T08:02:17.983Z</time></trkpt><trkpt lat="45.6498683" lon="9.9405743"><ele>227.0</ele><time>2026-04-04T08:02:31.828Z</time></trkpt><trkpt lat="45.650345" lon="9.9410705"><ele>230.0</ele><time>2026-04-04T08:02:39.917Z</time></trkpt><trkpt lat="45.6509233" lon="9.9434452"><ele>214.0</ele><time>2026-04-04T08:02:52.504Z</time></trkpt><trkpt lat="45.6534796" lon="9.9503631"><ele>213.0</ele><time>2026-04-04T08:03:08.459Z</time></trkpt><trkpt lat="45.653092" lon="9.9493676"><ele>213.0</ele><time>2026-04-04T08:03:31.713Z</time></trkpt><trkpt lat="45.6537277" lon="9.950639"><ele>211.5</ele><time>2026-04-04T08:03:40.566Z</time></trkpt><trkpt lat="45.653888" lon="9.9511806"><ele>210.0</ele><time>2026-04-04T08:03:47.628Z</time></trkpt><trkpt lat="45.6542065" lon="9.952145"><ele>208.5</ele><time>2026-04-04T08:03:54.885Z</time></trkpt><trkpt lat="45.6540902" lon="9.9521902"><ele>207.0</ele><time>2026-04-04T08:04:01.849Z</time></trkpt><trkpt lat="45.6539737" lon="9.9531706"><ele>204.0</ele><time>2026-04-04T08:04:10.998Z</time></trkpt><trkpt lat="45.6547579" lon="9.9540011"><ele>195.0</ele><time>2026-04-04T08:04:19.031Z</time></trkpt><trkpt lat="45.6544569" lon="9.9554861"><ele>193.0</ele><time>2026-04-04T08:04:24.718Z</time></trkpt><trkpt lat="45.654849" lon="9.9572321"><ele>193.0</ele><time>2026-04-04T08:04:33.065Z</time></trkpt><trkpt lat="45.6549514" lon="9.9572582"><ele>193.0</ele><time>2026-04-04T08:04:59.685Z</time></trkpt><trkpt lat="45.6552395" lon="9.9588054"><ele>209.0</ele><time>2026-04-04T08:05:07.472Z</time></trkpt><trkpt lat="45.6572737" lon="9.9605992"><ele>197.0</ele><time>2026-04-04T08:05:30.099Z</time></trkpt><trkpt lat="45.6570397" lon="9.9618171"><ele>192.0</ele><time>2026-04-04T08:05:36.025Z</time></trkpt><trkpt lat="45.6571755" lon="9.9628402"><ele>188.0</ele><time>2026-04-04T08:05:43.348Z</time></trkpt><trkpt lat="45.6575107" lon="9.9637448"><ele>192.0</ele><time>2026-04-04T08:05:49.669Z</time></trkpt><trkpt lat="45.6581508" lon="9.9640687"><ele>190.5</ele><time>2026-04-04T08:05:59.073Z</time></trkpt><trkpt lat="45.6580923" lon="9.9645119"><ele>189.0</ele><time>2026-04-04T08:06:06.029Z</time></trkpt><trkpt lat="45.6584052" lon="9.964896"><ele>189.0</ele><time>2026-04-04T08:06:19.025Z</time></trkpt><trkpt lat="45.6584924" lon="9.9657136"><ele>190.0</ele><time>2026-04-04T08:06:53.538Z</time></trkpt><trkpt lat="45.6580019" lon="9.9662662"><ele>210.0</ele><time>2026-04-04T08:07:01.938Z</time></trkpt><trkpt lat="45.6574995" lon="9.9693568"><ele>194.0</ele><time>2026-04-04T08:07:11.896Z</time></trkpt><trkpt lat="45.6592926" lon="9.9699029"><ele>190.0</ele><time>2026-04-04T08:07:24.891Z</time></trkpt><trkpt lat="45.6597824" lon="9.970385"><ele>189.0</ele><time>2026-04-04T08:07:31.85Z</time></trkpt><trkpt lat="45.6608673" lon="9.97223"><ele>188.0</ele><time>2026-04-04T08:07:41.935Z</time></trkpt><trkpt lat="45.6610776" lon="9.9725799"><ele>187.0</ele><time>2026-04-04T08:07:47.49Z</time></trkpt><trkpt lat="45.6615138" lon="9.9741692"><ele>194.0</ele><time>2026-04-04T08:07:56.644Z</time></trkpt><trkpt lat="45.6616895" lon="9.9754748"><ele>191.0</ele><time>2026-04-04T08:08:03.914Z</time></trkpt><trkpt lat="45.6618494" lon="9.9759319"><ele>188.0</ele><time>2026-04-04T08:08:12.002Z</time></trkpt><trkpt lat="45.6641487" lon="9.9824708"><ele>196.0</ele><time>2026-04-04T08:08:53.91Z</time></trkpt><trkpt lat="45.6643803" lon="9.9848857"><ele>189.0</ele><time>2026-04-04T08:09:07.949Z</time></trkpt><trkpt lat="45.6649805" lon="9.9866281"><ele>190.0</ele><time>2026-04-04T08:09:15.898Z</time></trkpt><trkpt lat="45.6649515" lon="9.9881267"><ele>200.0</ele><time>2026-04-04T08:09:23.093Z</time></trkpt><trkpt lat="45.6651769" lon="9.9906796"><ele>193.0</ele><time>2026-04-04T08:09:28.552Z</time></trkpt><trkpt lat="45.6652471" lon="9.9940249"><ele>193.0</ele><time>2026-04-04T08:09:40.826Z</time></trkpt><trkpt lat="45.6651482" lon="9.9940366"><ele>193.0</ele><time>2026-04-04T08:09:47.22Z</time></trkpt><trkpt lat="45.6648737" lon="9.9954393"><ele>187.0</ele><time>2026-04-04T08:09:55.066Z</time></trkpt><trkpt lat="45.6651462" lon="9.9967645"><ele>189.0</ele><time>2026-04-04T08:10:01.717Z</time></trkpt><trkpt lat="45.6633288" lon="9.9981421"><ele>189.0</ele><time>2026-04-04T08:10:10.976Z</time></trkpt><trkpt lat="45.6632625" lon="9.9983324"><ele>189.0</ele><time>2026-04-04T08:10:16.768Z</time></trkpt><trkpt lat="45.6629594" lon="9.9998398"><ele>192.0</ele><time>2026-04-04T08:10:24.968Z</time></trkpt><trkpt lat="45.6622738" lon="10.0000347"><ele>190.0</ele><time>2026-04-04T08:10:31.487Z</time></trkpt><trkpt lat="45.6633673" lon="10.0005492"><ele>187.0</ele><time>2026-04-04T08:10:45.45Z</time></trkpt><trkpt lat="45.6638166" lon="10.0010906"><ele>187.0</ele><time>2026-04-04T08:10:51.923Z</time></trkpt><trkpt lat="45.6637705" lon="10.0017464"><ele>187.0</ele><time>2026-04-04T08:10:59.334Z</time></trkpt><trkpt lat="45.6638642" lon="10.0020768"><ele>187.0</ele><time>2026-04-04T08:11:12.717Z</time></trkpt><trkpt lat="45.6637208" lon="10.0024628"><ele>187.0</ele><time>2026-04-04T08:11:19.681Z</time></trkpt><trkpt lat="45.6636364" lon="10.0029416"><ele>187.0</ele><time>2026-04-04T08:11:26.669Z</time></trkpt><trkpt lat="45.6634644" lon="10.0032013"><ele>187.5</ele><time>2026-04-04T08:12:13.774Z</time></trkpt><trkpt lat="45.6633826" lon="10.0031637"><ele>188.0</ele><time>2026-04-04T08:12:20.291Z</time></trkpt><trkpt lat="45.6632938" lon="10.0029295"><ele>188.5</ele><time>2026-04-04T08:13:07.19Z</time></trkpt><trkpt lat="45.6634701" lon="10.002907"><ele>189.0</ele><time>2026-04-04T08:13:13.948Z</time></trkpt><trkpt lat="45.663313" lon="10.0029061"><ele>189.0</ele><time>2026-04-04T08:13:20.606Z</time></trkpt><trkpt lat="45.6631386" lon="10.0025689"><ele>189.0</ele><time>2026-04-04T08:13:28.078Z</time></trkpt><trkpt lat="45.6626902" lon="10.0025378"><ele>190.5</ele><time>2026-04-04T08:13:35.25Z</time></trkpt><trkpt lat="45.6627021" lon="10.0023505"><ele>192.0</ele><time>2026-04-04T08:13:41.719Z</time></trkpt><trkpt lat="45.6626076" lon="10.0015236"><ele>192.0</ele><time>2026-04-04T08:13:50.535Z</time></trkpt><trkpt lat="45.6622409" lon="10.0011016"><ele>194.0</ele><time>2026-04-04T08:13:57.75Z</time></trkpt><trkpt lat="45.6617306" lon="10.0018162"><ele>194.0</ele><time>2026-04-04T08:14:12.797Z</time></trkpt><trkpt lat="45.6615758" lon="10.0018941"><ele>194.0</ele><time>2026-04-04T08:14:19.962Z</time></trkpt><trkpt lat="45.6615036" lon="10.0018227"><ele>194.0</ele><time>2026-04-04T08:14:31.88Z</time></trkpt><trkpt lat="45.6613461" lon="10.0016675"><ele>194.0</ele><time>2026-04-04T08:14:38.889Z</time></trkpt><trkpt lat="45.6612848" lon="10.0016059"><ele>194.0</ele><time>2026-04-04T08:14:45.545Z</time></trkpt><trkpt lat="45.6610458" lon="10.001576"><ele>194.0</ele><time>2026-04-04T08:15:27.088Z</time></trkpt><trkpt lat="45.6608471" lon="10.0019262"><ele>195.0</ele><time>2026-04-04T08:15:45.957Z</time></trkpt><trkpt lat="45.6601122" lon="10.0026101"><ele>195.0</ele><time>2026-04-04T08:15:54.012Z</time></trkpt><trkpt lat="45.6600063" lon="10.0030979"><ele>195.0</ele><time>2026-04-04T08:16:00.032Z</time></trkpt><trkpt lat="45.6604349" lon="10.0033898"><ele>196.0</ele><time>2026-04-04T08:16:08.029Z</time></trkpt><trkpt lat="45.6603591" lon="10.0038969"><ele>197.0</ele><time>2026-04-04T08:16:14.981Z</time></trkpt><trkpt lat="45.6609121" lon="10.0037952"><ele>194.5</ele><time>2026-04-04T08:16:21.301Z</time></trkpt><trkpt lat="45.6612284" lon="10.0036197"><ele>192.0</ele><time>2026-04-04T08:16:27.892Z</time></trkpt><trkpt lat="45.6625707" lon="10.002964"><ele>190.0</ele><time>2026-04-04T08:16:41.631Z</time></trkpt><trkpt lat="45.6620824" lon="10.0029982"><ele>185.0</ele><time>2026-04-04T08:16:49.953Z</time></trkpt><trkpt lat="45.6625109" lon="10.0039288"><ele>185.0</ele><time>2026-04-04T08:16:56.983Z</time></trkpt><trkpt lat="45.6624352" lon="10.003831"><ele>185.0</ele><time>2026-04-04T08:17:03.67Z</time></trkpt><trkpt lat="45.6619985" lon="10.0030253"><ele>185.0</ele><time>2026-04-04T08:17:10.399Z</time></trkpt><trkpt lat="45.6626242" lon="10.0039185"><ele>185.0</ele><time>2026-04-04T08:17:36.745Z</time></trkpt></trkseg></trk></gpx>